Pacific Zircon — D5CH8 — position and weather

sailwx.info

Track history (hours):
 
Tides and Currents Weather Stations Pressure Air Temp Water Temp Dewpoint Dewpoint Depression Visibility Wind Speed Wind Dir Waves Ship Positions

Pacific Zircon

Last reported at 2017-Sep-21 17:56 UTC. Time now 2017-Sep-25 06:18 UTC.
Position N 04°51' E 000°36'.

Length 183 m; draft 11.1 m.

Type: Ship. MMSI: 636015704.

Date/timePositionNaut miles runAvg speedWind from/ knotsBaromVisibWave heightAir tempDewpointWater temp
2017-Sep-21 17:56N 04°51' E 000°36'612.8
2017-Sep-21 17:29N 04°49' E 000°30'16611.7
2017-Sep-21 03:18N 04°05' W 002°10'412.0
2017-Sep-21 02:59N 04°06' W 002°13'711.9
2017-Sep-21 02:26N 04°09' W 002°20'511.7
2017-Sep-21 01:59N 04°10' W 002°25'611.9
2017-Sep-21 01:29N 04°12' W 002°30'611.9
2017-Sep-21 01:00N 04°14' W 002°36'611.9
2017-Sep-21 00:30N 04°16' W 002°41'612.1
2017-Sep-21 00:00N 04°18' W 002°47'612.2
2017-Sep-20 23:30N 04°19' W 002°53'612.4
2017-Sep-20 22:59N 04°20' W 002°59'612.4
2017-Sep-20 22:29N 04°22' W 003°05'612.4
2017-Sep-20 22:00N 04°24' W 003°11'  
2017-Sep-14 23:14N 04°21' W 003°08'311.3
2017-Sep-14 22:59N 04°20' W 003°06'611.4
2017-Sep-14 22:30N 04°17' W 003°00'511.1
2017-Sep-14 22:01N 04°15' W 002°55'611.0
2017-Sep-14 21:30N 04°13' W 002°50'510.7
2017-Sep-14 20:59N 04°13' W 002°45'611.0
2017-Sep-14 20:29N 04°12' W 002°39'2310.2
2017-Sep-14 18:13N 04°05' W 002°17'311.6
2017-Sep-14 17:59N 04°05' W 002°15'813.4
2017-Sep-14 17:22N 04°05' W 002°06'20711.1
2017-Sep-13 22:40N 05°28' E 001°04'  
Track history (hours):
 
Tides and Currents Weather Stations Pressure Air Temp Water Temp Dewpoint Dewpoint Depression Visibility Wind Speed Wind Dir Waves Ship Positions

Pacific Zircon

Last reported at 2017-Sep-21 17:56 UTC. Time now 2017-Sep-25 06:18 UTC.
Position N 04°51' E 000°36'.

Length 183 m; draft 11.1 m.

Type: Ship. MMSI: 636015704.

Date/timePositionNaut miles runAvg speedWind from/ knotsBaromVisibWave heightAir tempDewpointWater temp
2017-Sep-21 17:56N 04°51' E 000°36'612.8
2017-Sep-21 17:29N 04°49' E 000°30'16611.7
2017-Sep-21 03:18N 04°05' W 002°10'412.0
2017-Sep-21 02:59N 04°06' W 002°13'711.9
2017-Sep-21 02:26N 04°09' W 002°20'511.7
2017-Sep-21 01:59N 04°10' W 002°25'611.9
2017-Sep-21 01:29N 04°12' W 002°30'611.9
2017-Sep-21 01:00N 04°14' W 002°36'611.9
2017-Sep-21 00:30N 04°16' W 002°41'612.1
2017-Sep-21 00:00N 04°18' W 002°47'612.2
2017-Sep-20 23:30N 04°19' W 002°53'612.4
2017-Sep-20 22:59N 04°20' W 002°59'612.4
2017-Sep-20 22:29N 04°22' W 003°05'612.4
2017-Sep-20 22:00N 04°24' W 003°11'  
2017-Sep-14 23:14N 04°21' W 003°08'311.3
2017-Sep-14 22:59N 04°20' W 003°06'611.4
2017-Sep-14 22:30N 04°17' W 003°00'511.1
2017-Sep-14 22:01N 04°15' W 002°55'611.0
2017-Sep-14 21:30N 04°13' W 002°50'510.7
2017-Sep-14 20:59N 04°13' W 002°45'611.0
2017-Sep-14 20:29N 04°12' W 002°39'2310.2
2017-Sep-14 18:13N 04°05' W 002°17'311.6
2017-Sep-14 17:59N 04°05' W 002°15'813.4
2017-Sep-14 17:22N 04°05' W 002°06'20711.1
2017-Sep-13 22:40N 05°28' E 001°04'  

Dump ship's entire track history